createdAt,value
2023-12-23T00:00:19.522Z,81.60
2023-12-23T00:05:21.455Z,82.37
2023-12-23T00:10:23.340Z,82.74
2023-12-23T00:15:25.046Z,84.08
2023-12-23T00:20:26.730Z,83.23
2023-12-23T00:25:28.385Z,84.98
2023-12-23T00:30:30.306Z,85.03
2023-12-23T00:35:32.162Z,85.48
2023-12-23T00:40:34.050Z,85.70
2023-12-23T00:45:35.751Z,85.90
2023-12-23T00:50:37.393Z,86.73
2023-12-23T00:55:39.627Z,86.31
2023-12-23T01:00:41.325Z,85.92
2023-12-23T01:05:43.051Z,84.17
2023-12-23T01:10:44.747Z,84.17
2023-12-23T01:15:46.561Z,84.47
2023-12-23T01:20:49.210Z,84.23
2023-12-23T01:25:50.916Z,83.77
2023-12-23T01:30:52.823Z,83.50
2023-12-23T01:35:54.678Z,83.03
2023-12-23T01:40:56.353Z,81.42
2023-12-23T01:46:01.435Z,81.91
2023-12-23T01:51:03.545Z,82.48
2023-12-23T01:56:05.641Z,82.29
2023-12-23T02:01:07.940Z,80.90
2023-12-23T02:06:09.925Z,79.34
2023-12-23T02:11:14.852Z,76.17
2023-12-23T02:16:16.785Z,76.73
2023-12-23T02:21:18.486Z,76.22
2023-12-23T02:26:23.120Z,78.23
2023-12-23T02:31:25.022Z,76.78
2023-12-23T02:36:26.919Z,76.92
2023-12-23T02:41:28.692Z,76.29
2023-12-23T02:46:30.360Z,76.59
2023-12-23T02:51:32.872Z,76.75
2023-12-23T02:56:34.619Z,77.13
2023-12-23T03:01:36.297Z,76.69
2023-12-23T03:06:38.009Z,77.67
2023-12-23T03:11:39.742Z,79.48
2023-12-23T03:16:41.480Z,78.55
2023-12-23T03:21:44.486Z,78.19
2023-12-23T03:26:46.209Z,77.08
2023-12-23T03:31:47.935Z,75.89
2023-12-23T03:36:49.637Z,74.90
2023-12-23T03:41:51.270Z,74.92
2023-12-23T03:46:57.225Z,74.41
2023-12-23T03:51:59.149Z,74.13
2023-12-23T03:57:00.814Z,73.59
2023-12-23T04:02:02.567Z,74.20
2023-12-23T04:07:04.668Z,74.72
2023-12-23T04:12:06.908Z,73.89
2023-12-23T04:17:08.661Z,75.31
2023-12-23T04:22:10.379Z,75.69
2023-12-23T04:27:12.069Z,74.79
2023-12-23T04:32:14.461Z,74.97
2023-12-23T04:37:16.495Z,73.34
2023-12-23T04:42:18.204Z,72.46
2023-12-23T04:47:20.258Z,70.64
2023-12-23T04:52:22.065Z,70.60
2023-12-23T04:57:23.757Z,71.47
2023-12-23T05:02:25.434Z,71.70
2023-12-23T05:07:27.106Z,72.13
2023-12-23T05:12:28.791Z,72.61
2023-12-23T05:17:30.654Z,73.30
2023-12-23T05:22:32.363Z,73.60
2023-12-23T05:27:34.690Z,74.20
2023-12-23T05:32:36.477Z,74.68
2023-12-23T05:37:38.346Z,73.79
2023-12-23T05:42:40.118Z,74.60
2023-12-23T05:47:44.253Z,75.52
2023-12-23T05:52:46.084Z,75.29
2023-12-23T05:57:47.821Z,76.23
2023-12-23T06:02:49.886Z,76.24
2023-12-23T06:07:51.719Z,76.61
2023-12-23T06:12:53.582Z,77.05
2023-12-23T06:17:56.413Z,79.25
2023-12-23T06:22:58.946Z,79.95
2023-12-23T06:28:00.692Z,82.41
2023-12-23T06:33:02.464Z,82.63
2023-12-23T06:38:04.350Z,81.68
2023-12-23T06:43:43.332Z,83.34
2023-12-23T06:48:31.282Z,84.50
2023-12-23T06:53:34.909Z,84.59
2023-12-23T06:58:36.575Z,85.90
2023-12-23T07:03:38.235Z,85.81
2023-12-23T07:08:40.581Z,85.21
2023-12-23T07:13:42.244Z,86.82
2023-12-23T07:18:44.411Z,87.95
2023-12-23T07:23:46.352Z,88.08
2023-12-23T07:28:47.990Z,88.84
2023-12-23T07:33:49.700Z,88.54
2023-12-23T07:38:51.390Z,89.05
2023-12-23T07:43:53.642Z,88.21
2023-12-23T07:48:55.396Z,90.05
2023-12-23T07:53:57.173Z,91.79
2023-12-23T07:58:59.216Z,92.20
2023-12-23T08:04:01.079Z,92.12
2023-12-23T08:09:02.988Z,92.07
2023-12-23T08:14:05.187Z,91.20
2023-12-23T08:19:06.982Z,91.68
2023-12-23T08:24:08.694Z,92.95
2023-12-23T08:29:11.695Z,92.62
2023-12-23T08:34:13.763Z,93.19
2023-12-23T08:39:15.539Z,91.96
2023-12-23T08:44:17.353Z,91.65
2023-12-23T08:49:19.178Z,92.12
2023-12-23T08:54:20.942Z,92.16
2023-12-23T08:59:22.650Z,92.57
2023-12-23T09:04:24.338Z,91.76
2023-12-23T09:09:25.999Z,92.76
2023-12-23T09:14:28.087Z,97.22
2023-12-23T09:19:29.786Z,95.86
2023-12-23T09:24:31.451Z,95.12
2023-12-23T09:29:33.102Z,95.24
2023-12-23T09:34:34.792Z,94.96
2023-12-23T09:39:36.477Z,94.76
2023-12-23T09:44:38.397Z,97.44
2023-12-23T09:49:40.054Z,98.72
2023-12-23T09:54:49.459Z,96.62
2023-12-23T09:59:52.297Z,99.61
2023-12-23T10:04:54.125Z,98.04
2023-12-23T10:09:55.972Z,98.06
2023-12-23T10:14:57.709Z,97.55
2023-12-23T10:19:59.547Z,97.45
2023-12-23T10:25:01.934Z,97.11
2023-12-23T10:30:04.903Z,99.57
2023-12-23T10:35:08.058Z,99.31
2023-12-23T10:40:19.646Z,99.23
2023-12-23T10:45:22.538Z,98.81
2023-12-23T10:50:24.421Z,98.00
2023-12-23T10:55:26.380Z,99.43
2023-12-23T11:00:28.020Z,100.00
2023-12-23T11:05:30.175Z,100.00
2023-12-23T11:10:32.820Z,100.00
2023-12-23T11:15:38.549Z,100.00
2023-12-23T11:20:45.817Z,100.00
2023-12-23T11:25:47.502Z,100.00
2023-12-23T11:30:56.004Z,100.00
2023-12-23T11:36:02.630Z,100.00
2023-12-23T11:41:05.490Z,100.00
2023-12-23T11:46:07.245Z,99.39
2023-12-23T11:51:10.413Z,96.54
2023-12-23T11:56:12.271Z,97.27
2023-12-23T12:01:14.095Z,96.90
2023-12-23T12:06:15.990Z,97.46
2023-12-23T12:11:18.688Z,97.85
2023-12-23T12:16:20.470Z,97.72
2023-12-23T12:21:22.206Z,98.03
2023-12-23T12:26:23.930Z,96.94
2023-12-23T12:31:25.638Z,96.24
2023-12-23T12:36:27.339Z,96.19
2023-12-23T12:41:29.267Z,95.08
2023-12-23T12:46:33.357Z,95.86
2023-12-23T12:51:38.006Z,96.28
2023-12-23T12:56:40.966Z,95.29
2023-12-23T13:01:42.623Z,95.67
2023-12-23T13:06:44.466Z,95.37
2023-12-23T13:11:46.113Z,95.27
2023-12-23T13:16:47.940Z,95.81
2023-12-23T13:21:49.889Z,94.44
2023-12-23T13:26:51.539Z,94.80
2023-12-23T13:31:53.247Z,95.59
2023-12-23T13:36:55.062Z,96.50
2023-12-23T13:41:56.771Z,95.04
2023-12-23T13:47:01.438Z,94.83
2023-12-23T13:52:03.561Z,95.78
2023-12-23T13:57:05.508Z,94.19
2023-12-23T14:02:09.259Z,93.80
2023-12-23T14:07:11.329Z,94.94
2023-12-23T14:12:13.029Z,95.48
2023-12-23T14:17:14.747Z,96.17
2023-12-23T14:22:18.906Z,95.92
2023-12-23T14:27:20.819Z,96.34
2023-12-23T14:32:22.494Z,96.83
2023-12-23T14:37:27.891Z,97.54
2023-12-23T14:42:33.829Z,97.33
2023-12-23T14:47:35.535Z,97.61
2023-12-23T14:52:37.319Z,97.39
2023-12-23T14:57:38.957Z,96.60
2023-12-23T15:02:41.071Z,97.75
2023-12-23T15:07:42.717Z,98.39
2023-12-23T15:12:44.516Z,98.73
2023-12-23T15:17:46.437Z,98.59
2023-12-23T15:22:48.224Z,99.33
2023-12-23T15:27:49.894Z,98.46
2023-12-23T15:32:51.894Z,98.04
2023-12-23T15:37:53.860Z,98.07
2023-12-23T15:42:55.593Z,99.14
2023-12-23T15:47:57.265Z,97.83
2023-12-23T15:52:59.098Z,98.22
2023-12-23T15:58:02.930Z,97.36
2023-12-23T16:03:04.988Z,96.98
2023-12-23T16:08:09.622Z,97.27
2023-12-23T16:13:13.217Z,97.44
2023-12-23T16:18:14.959Z,98.14
2023-12-23T16:23:16.762Z,97.38
2023-12-23T16:28:18.536Z,97.10
2023-12-23T16:33:20.389Z,96.99
2023-12-23T16:38:22.127Z,95.96
2023-12-23T16:43:23.775Z,96.99
2023-12-23T16:48:25.574Z,96.61
2023-12-23T16:53:27.421Z,96.07
2023-12-23T16:58:29.757Z,96.73
2023-12-23T17:03:31.568Z,96.72
2023-12-23T17:08:33.297Z,97.13
2023-12-23T17:13:34.973Z,95.76
2023-12-23T17:18:36.720Z,94.99
2023-12-23T17:23:38.588Z,96.59
2023-12-23T17:28:40.406Z,95.03
2023-12-23T17:33:42.228Z,97.36
2023-12-23T17:38:44.341Z,96.24
2023-12-23T17:43:46.061Z,97.16
2023-12-23T17:48:47.930Z,96.89
2023-12-23T17:53:49.695Z,96.02
2023-12-23T17:58:51.641Z,96.51
2023-12-23T18:03:53.258Z,95.99
2023-12-23T18:08:54.919Z,98.07
2023-12-23T18:13:56.599Z,96.28
2023-12-23T18:18:58.330Z,95.70
2023-12-23T18:24:01.797Z,95.12
2023-12-23T18:29:03.529Z,95.15
2023-12-23T18:34:05.797Z,96.54
2023-12-23T18:39:07.544Z,97.52
2023-12-23T18:44:09.672Z,98.65
2023-12-23T18:49:11.839Z,98.05
2023-12-23T18:54:13.539Z,97.27
2023-12-23T18:59:16.867Z,97.43
2023-12-23T19:04:18.747Z,96.57
2023-12-23T19:09:20.536Z,95.11
2023-12-23T19:14:22.217Z,95.87
2023-12-23T19:19:23.934Z,95.82
2023-12-23T19:24:25.677Z,96.23
2023-12-23T19:29:27.581Z,96.28
2023-12-23T19:34:29.312Z,95.93
2023-12-23T19:39:30.981Z,97.44
2023-12-23T19:44:33.488Z,97.48
2023-12-23T19:49:35.229Z,98.62
2023-12-23T19:54:36.881Z,98.38
2023-12-23T19:59:38.770Z,98.64
2023-12-23T20:04:40.525Z,99.58
2023-12-23T20:09:42.200Z,99.16
2023-12-23T20:14:44.966Z,99.53
2023-12-23T20:19:46.671Z,100.00
2023-12-23T20:24:48.370Z,100.00
2023-12-23T20:29:50.052Z,100.00
2023-12-23T20:34:51.876Z,100.00
2023-12-23T20:39:53.586Z,100.00
2023-12-23T20:44:55.228Z,100.00
2023-12-23T20:49:58.740Z,100.00
2023-12-23T20:55:00.426Z,100.00
2023-12-23T21:00:03.225Z,100.00
2023-12-23T21:05:05.314Z,100.00
2023-12-23T21:10:08.452Z,100.00
2023-12-23T21:15:11.105Z,100.00
2023-12-23T21:20:12.897Z,100.00
2023-12-23T21:25:14.675Z,100.00
2023-12-23T21:30:16.657Z,100.00
2023-12-23T21:35:18.472Z,100.00
2023-12-23T21:40:20.868Z,100.00
2023-12-23T21:45:22.487Z,100.00
2023-12-23T21:50:24.281Z,100.00
2023-12-23T21:55:29.538Z,100.00
2023-12-23T22:00:31.233Z,100.00
2023-12-23T22:05:32.982Z,100.00
2023-12-23T22:10:35.125Z,100.00
2023-12-23T22:15:36.842Z,100.00
2023-12-23T22:20:38.585Z,100.00
2023-12-23T22:25:40.572Z,100.00
2023-12-23T22:30:42.304Z,100.00
2023-12-23T22:35:47.215Z,100.00
2023-12-23T22:40:49.485Z,100.00
2023-12-23T22:45:51.134Z,100.00
2023-12-23T22:50:52.797Z,100.00
2023-12-23T22:55:54.602Z,100.00
2023-12-23T23:00:56.414Z,100.00
2023-12-23T23:05:58.583Z,100.00
2023-12-23T23:11:00.394Z,100.00
2023-12-23T23:16:02.156Z,100.00
2023-12-23T23:21:03.986Z,100.00
2023-12-23T23:26:06.684Z,100.00
2023-12-23T23:31:08.370Z,100.00
2023-12-23T23:36:17.382Z,100.00
2023-12-23T23:41:19.536Z,100.00
2023-12-23T23:46:21.734Z,100.00
2023-12-23T23:51:23.794Z,100.00
2023-12-23T23:56:25.632Z,100.00
